createdAt,value
2023-04-23T00:01:39.190Z,24.60
2023-04-23T00:05:06.210Z,26.17
2023-04-23T00:08:31.407Z,29.63
2023-04-23T00:11:56.278Z,31.27
2023-04-23T00:15:22.052Z,30.30
2023-04-23T00:18:47.764Z,33.33
2023-04-23T00:22:11.538Z,32.03
2023-04-23T00:25:36.183Z,29.33
2023-04-23T00:29:00.095Z,32.77
2023-04-23T00:32:24.203Z,34.10
2023-04-23T00:35:49.649Z,29.53
2023-04-23T00:39:15.673Z,30.43
2023-04-23T00:42:39.942Z,33.20
2023-04-23T00:46:06.387Z,31.50
2023-04-23T00:49:30.621Z,31.37
2023-04-23T00:52:56.576Z,32.27
2023-04-23T00:56:22.793Z,30.00
2023-04-23T00:59:46.761Z,31.93
2023-04-23T01:03:13.534Z,33.50
2023-04-23T01:06:38.268Z,34.57
2023-04-23T01:10:06.981Z,34.47
2023-04-23T01:13:31.781Z,31.83
2023-04-23T01:16:56.838Z,30.93
2023-04-23T01:20:21.249Z,33.37
2023-04-23T01:23:46.780Z,33.60
2023-04-23T01:27:12.063Z,35.00
2023-04-23T01:30:37.313Z,35.67
2023-04-23T01:34:01.874Z,37.27
2023-04-23T01:37:27.492Z,34.73
2023-04-23T01:40:52.665Z,37.10
2023-04-23T01:44:18.329Z,38.60
2023-04-23T01:47:42.651Z,35.50
2023-04-23T01:51:07.854Z,36.57
2023-04-23T01:54:32.260Z,39.10
2023-04-23T01:57:57.660Z,37.60
2023-04-23T02:01:22.508Z,43.23
2023-04-23T02:04:48.739Z,36.33
2023-04-23T02:08:15.376Z,34.77
2023-04-23T02:11:39.075Z,36.07
2023-04-23T02:15:05.253Z,36.00
2023-04-23T02:18:29.350Z,36.67
2023-04-23T02:21:53.312Z,40.77
2023-04-23T02:25:18.081Z,42.33
2023-04-23T02:28:42.328Z,37.40
2023-04-23T02:32:07.905Z,37.93
2023-04-23T02:35:32.409Z,35.70
2023-04-23T02:38:56.375Z,37.17
2023-04-23T02:42:20.318Z,43.53
2023-04-23T02:45:45.768Z,38.93
2023-04-23T02:49:14.642Z,37.27
2023-04-23T02:52:39.322Z,38.30
2023-04-23T02:56:03.293Z,33.40
2023-04-23T02:59:28.679Z,39.17
2023-04-23T03:02:53.616Z,41.73
2023-04-23T03:06:19.785Z,39.40
2023-04-23T03:09:44.364Z,39.63
2023-04-23T03:13:08.557Z,40.17
2023-04-23T03:16:32.577Z,38.90
2023-04-23T03:19:56.291Z,39.87
2023-04-23T03:23:22.948Z,41.23
2023-04-23T03:26:48.368Z,38.53
2023-04-23T03:30:13.673Z,36.93
2023-04-23T03:33:38.397Z,44.17
2023-04-23T03:37:02.385Z,40.57
2023-04-23T03:40:31.002Z,39.83
2023-04-23T03:44:00.471Z,43.30
2023-04-23T03:47:36.789Z,43.03
2023-04-23T03:51:01.483Z,39.97
2023-04-23T03:54:32.382Z,39.50
2023-04-23T03:58:17.152Z,47.23
2023-04-23T04:01:44.640Z,43.30
2023-04-23T04:05:11.797Z,42.37
2023-04-23T04:08:36.689Z,43.40
2023-04-23T04:12:02.842Z,43.20
2023-04-23T04:15:29.361Z,41.83
2023-04-23T04:18:56.256Z,44.47
2023-04-23T04:22:20.825Z,43.27
2023-04-23T04:25:45.904Z,43.10
2023-04-23T04:29:10.640Z,44.60
2023-04-23T04:32:38.880Z,40.60
2023-04-23T04:36:03.717Z,46.50
2023-04-23T04:39:28.434Z,45.83
2023-04-23T04:42:53.193Z,50.87
2023-04-23T04:46:19.955Z,47.50
2023-04-23T04:49:45.505Z,56.73
2023-04-23T04:53:09.184Z,51.47
2023-04-23T04:56:33.722Z,50.53
2023-04-23T04:59:57.547Z,53.57
2023-04-23T05:03:22.793Z,48.70
2023-04-23T05:06:48.032Z,45.53
2023-04-23T05:10:14.412Z,51.77
2023-04-23T05:13:39.308Z,57.17
2023-04-23T05:17:03.662Z,53.37
2023-04-23T05:20:28.752Z,53.33
2023-04-23T05:23:53.909Z,63.93
2023-04-23T05:27:18.593Z,57.60
2023-04-23T05:30:42.601Z,56.70
2023-04-23T05:34:08.935Z,59.70
2023-04-23T05:37:33.593Z,56.00
2023-04-23T05:40:59.036Z,53.97
2023-04-23T05:44:23.568Z,61.23
2023-04-23T05:47:47.678Z,50.50
2023-04-23T05:51:12.209Z,55.47
2023-04-23T05:54:36.599Z,52.70
2023-04-23T05:58:02.467Z,57.87
2023-04-23T06:01:26.170Z,54.50
2023-04-23T06:04:50.999Z,47.40
2023-04-23T06:08:15.639Z,49.30
2023-04-23T06:11:39.823Z,49.53
2023-04-23T06:15:06.020Z,42.60
2023-04-23T06:18:31.114Z,42.20
2023-04-23T06:21:56.006Z,37.23
2023-04-23T06:25:20.652Z,33.07
2023-04-23T06:28:47.143Z,28.13
2023-04-23T06:32:27.114Z,28.77
2023-04-23T06:35:50.916Z,24.63
2023-04-23T06:39:15.686Z,27.00
2023-04-23T06:42:39.596Z,27.53
2023-04-23T06:46:23.702Z,29.10
2023-04-23T06:49:49.051Z,24.10
2023-04-23T06:53:13.632Z,23.50
2023-04-23T06:56:37.573Z,21.33
2023-04-23T07:00:01.682Z,22.97
2023-04-23T07:03:32.895Z,21.00
2023-04-23T07:06:57.976Z,22.27
2023-04-23T07:10:22.840Z,18.17
2023-04-23T07:13:47.011Z,19.23
2023-04-23T07:17:12.002Z,21.27
2023-04-23T07:20:40.485Z,16.43
2023-04-23T07:24:09.240Z,19.53
2023-04-23T07:27:34.086Z,18.90
2023-04-23T07:30:57.965Z,17.00
2023-04-23T07:34:21.569Z,17.00
2023-04-23T07:37:45.652Z,17.00
2023-04-23T07:41:11.032Z,14.73
2023-04-23T07:44:34.850Z,14.33
2023-04-23T07:47:59.011Z,14.83
2023-04-23T07:51:26.533Z,14.50
2023-04-23T07:54:50.310Z,16.43
2023-04-23T07:58:15.472Z,14.23
2023-04-23T08:01:39.680Z,13.93
2023-04-23T08:05:04.608Z,12.80
2023-04-23T08:08:28.442Z,12.60
2023-04-23T08:11:52.515Z,14.97
2023-04-23T08:15:17.575Z,18.40
2023-04-23T08:18:42.078Z,15.43
2023-04-23T08:22:06.755Z,16.53
2023-04-23T08:25:31.170Z,16.43
2023-04-23T08:28:54.967Z,18.73
2023-04-23T08:32:20.597Z,18.40
2023-04-23T08:35:44.386Z,18.53
2023-04-23T08:39:08.056Z,17.40
2023-04-23T08:42:39.067Z,17.83
2023-04-23T08:46:05.305Z,17.10
2023-04-23T08:49:35.279Z,19.60
2023-04-23T08:52:59.581Z,19.33
2023-04-23T08:56:24.473Z,18.47
2023-04-23T08:59:53.167Z,16.83
2023-04-23T09:03:18.310Z,18.17
2023-04-23T09:06:44.459Z,14.20
2023-04-23T09:10:11.332Z,13.53
2023-04-23T09:13:36.354Z,12.53
2023-04-23T09:17:00.682Z,13.73
2023-04-23T09:20:24.442Z,13.70
2023-04-23T09:23:52.024Z,12.23
2023-04-23T09:27:26.318Z,12.83
2023-04-23T09:30:50.308Z,12.53
2023-04-23T09:34:16.411Z,10.90
2023-04-23T09:37:43.077Z,10.93
2023-04-23T09:45:00.752Z,10.87
2023-04-23T09:48:24.769Z,11.10
2023-04-23T09:51:50.282Z,13.30
2023-04-23T09:55:14.027Z,11.33
2023-04-23T09:58:38.796Z,10.67
2023-04-23T10:02:08.442Z,10.60
2023-04-23T10:05:45.302Z,10.23
2023-04-23T10:09:16.728Z,9.63
2023-04-23T10:12:53.637Z,10.97
2023-04-23T10:16:24.344Z,10.80
2023-04-23T10:19:53.706Z,10.10
2023-04-23T10:23:20.600Z,11.53
2023-04-23T10:26:45.217Z,8.40
2023-04-23T10:30:10.388Z,10.13
2023-04-23T10:33:42.929Z,8.97
2023-04-23T10:37:21.411Z,8.87
2023-04-23T10:40:47.947Z,7.70
2023-04-23T10:44:15.889Z,8.20
2023-04-23T10:47:43.423Z,13.40
2023-04-23T10:51:35.502Z,9.17
2023-04-23T10:55:04.493Z,8.27
2023-04-23T10:58:51.888Z,8.80
2023-04-23T11:02:16.195Z,8.80
2023-04-23T11:05:40.174Z,7.27
2023-04-23T11:09:30.378Z,7.90
2023-04-23T11:12:57.314Z,9.03
2023-04-23T11:16:23.990Z,8.30
2023-04-23T11:20:11.143Z,8.77
2023-04-23T11:23:35.156Z,7.60
2023-04-23T11:26:59.247Z,10.30
2023-04-23T11:30:25.650Z,7.73
2023-04-23T11:33:49.278Z,7.40
2023-04-23T11:37:13.807Z,7.00
2023-04-23T11:40:40.526Z,10.43
2023-04-23T11:44:04.556Z,7.60
2023-04-23T11:47:32.808Z,8.90
2023-04-23T11:50:56.605Z,7.17
2023-04-23T11:54:20.391Z,7.50
2023-04-23T11:57:45.035Z,6.27
2023-04-23T12:01:08.959Z,8.20
2023-04-23T12:04:34.958Z,7.27
2023-04-23T12:08:09.913Z,9.70
2023-04-23T12:11:35.013Z,6.87
2023-04-23T12:15:05.575Z,5.93
2023-04-23T12:18:29.941Z,7.93
2023-04-23T12:21:56.728Z,5.97
2023-04-23T12:25:24.279Z,5.50
2023-04-23T12:28:48.641Z,7.20
2023-04-23T12:32:12.942Z,7.40
2023-04-23T12:35:40.772Z,5.53
2023-04-23T12:39:23.473Z,7.83
2023-04-23T12:42:47.056Z,6.00
2023-04-23T12:46:10.783Z,5.03
2023-04-23T12:49:35.633Z,5.57
2023-04-23T12:52:59.368Z,6.90
2023-04-23T12:56:24.493Z,6.60
2023-04-23T12:59:48.376Z,6.40
2023-04-23T13:03:14.492Z,7.43
2023-04-23T13:06:38.240Z,7.63
2023-04-23T13:10:02.367Z,5.50
2023-04-23T13:13:27.470Z,5.60
2023-04-23T13:16:52.713Z,10.70
2023-04-23T13:20:16.730Z,5.67
2023-04-23T13:23:41.132Z,5.80
2023-04-23T13:27:04.927Z,7.53
2023-04-23T13:30:30.584Z,6.30
2023-04-23T13:33:54.686Z,6.33
2023-04-23T13:37:18.541Z,5.43
2023-04-23T13:40:42.360Z,5.87
2023-04-23T13:44:07.944Z,5.53
2023-04-23T13:47:36.804Z,4.90
2023-04-23T13:51:02.046Z,6.50
2023-04-23T13:54:27.785Z,4.73
2023-04-23T13:57:57.816Z,4.80
2023-04-23T14:01:23.859Z,4.90
2023-04-23T14:04:49.514Z,4.63
2023-04-23T14:08:16.196Z,8.03
2023-04-23T14:11:41.660Z,4.70
2023-04-23T14:15:06.035Z,6.80
2023-04-23T14:18:30.088Z,5.90
2023-04-23T14:21:55.788Z,6.33
2023-04-23T14:25:26.381Z,5.50
2023-04-23T14:28:53.283Z,5.60
2023-04-23T14:32:17.093Z,5.77
2023-04-23T14:35:43.506Z,6.70
2023-04-23T14:39:08.936Z,5.07
2023-04-23T14:42:32.731Z,5.63
2023-04-23T14:45:56.485Z,4.80
2023-04-23T14:49:20.866Z,5.90
2023-04-23T14:52:48.978Z,6.20
2023-04-23T14:56:14.280Z,7.00
2023-04-23T14:59:38.279Z,7.43
2023-04-23T15:03:03.038Z,5.50
2023-04-23T15:06:27.358Z,8.50
2023-04-23T15:09:51.125Z,5.37
2023-04-23T15:13:39.918Z,6.83
2023-04-23T15:17:03.635Z,6.00
2023-04-23T15:20:27.495Z,5.13
2023-04-23T15:23:51.184Z,5.53
2023-04-23T15:27:15.829Z,5.67
2023-04-23T15:30:41.225Z,5.93
2023-04-23T15:34:07.328Z,6.30
2023-04-23T15:37:31.163Z,6.83
2023-04-23T15:40:57.255Z,6.00
2023-04-23T15:44:20.975Z,5.10
2023-04-23T15:47:46.122Z,6.77
2023-04-23T15:51:09.822Z,5.33
2023-04-23T15:54:33.484Z,6.53
2023-04-23T15:57:59.047Z,5.70
2023-04-23T16:01:24.797Z,5.30
2023-04-23T16:04:51.910Z,7.20
2023-04-23T16:08:16.795Z,6.10
2023-04-23T16:11:40.797Z,6.23
2023-04-23T16:15:04.699Z,6.40
2023-04-23T16:18:28.560Z,8.20
2023-04-23T16:21:53.585Z,8.23
2023-04-23T16:25:17.360Z,7.40
2023-04-23T16:28:41.032Z,4.97
2023-04-23T16:32:04.817Z,6.40
2023-04-23T16:35:28.473Z,8.20
2023-04-23T16:38:53.698Z,12.73
2023-04-23T16:42:17.688Z,5.67
2023-04-23T16:45:41.459Z,5.80
2023-04-23T16:49:05.061Z,5.70
2023-04-23T16:52:28.734Z,7.67
2023-04-23T16:55:53.819Z,5.60
2023-04-23T16:59:17.599Z,8.20
2023-04-23T17:02:42.793Z,6.70
2023-04-23T17:06:11.722Z,10.30
2023-04-23T17:09:35.726Z,5.97
2023-04-23T17:13:00.836Z,11.53
2023-04-23T17:16:26.722Z,6.20
2023-04-23T17:19:51.631Z,6.67
2023-04-23T17:23:15.930Z,5.00
2023-04-23T17:26:39.847Z,6.20
2023-04-23T17:30:07.478Z,5.03
2023-04-23T17:33:31.253Z,6.40
2023-04-23T17:36:55.149Z,6.33
2023-04-23T17:40:19.421Z,5.57
2023-04-23T17:43:43.476Z,5.90
2023-04-23T17:47:10.170Z,6.27
2023-04-23T17:50:33.793Z,5.40
2023-04-23T17:53:57.529Z,7.80
2023-04-23T17:57:21.153Z,5.80
2023-04-23T18:00:44.709Z,6.03
2023-04-23T18:04:10.252Z,5.40
2023-04-23T18:07:34.051Z,5.03
2023-04-23T18:10:57.878Z,6.30
2023-04-23T18:14:21.563Z,6.87
2023-04-23T18:17:45.251Z,6.87
2023-04-23T18:21:10.478Z,9.40
2023-04-23T18:24:34.130Z,8.30
2023-04-23T18:27:57.950Z,6.03
2023-04-23T18:31:21.660Z,5.97
2023-04-23T18:34:45.516Z,7.20
2023-04-23T18:38:26.564Z,9.00
2023-04-23T18:41:50.515Z,5.87
2023-04-23T18:45:14.527Z,6.00
2023-04-23T18:48:47.437Z,6.77
2023-04-23T18:52:11.087Z,6.30
2023-04-23T18:55:36.994Z,6.10
2023-04-23T18:59:00.706Z,6.00
2023-04-23T19:02:34.422Z,5.93
2023-04-23T19:05:59.580Z,6.77
2023-04-23T19:09:23.601Z,7.50
2023-04-23T19:12:48.486Z,10.13
2023-04-23T19:16:12.206Z,12.40
2023-04-23T19:19:35.874Z,8.57
2023-04-23T19:22:59.493Z,8.67
2023-04-23T19:26:23.233Z,7.77
2023-04-23T19:29:49.182Z,10.60
2023-04-23T19:33:12.853Z,6.70
2023-04-23T19:36:36.538Z,7.23
2023-04-23T19:40:00.654Z,7.30
2023-04-23T19:43:24.372Z,8.83
2023-04-23T19:46:49.401Z,7.20
2023-04-23T19:50:13.766Z,6.17
2023-04-23T19:53:37.614Z,5.97
2023-04-23T19:57:02.082Z,6.50
2023-04-23T20:00:27.180Z,5.97
2023-04-23T20:03:53.665Z,6.03
2023-04-23T20:07:17.976Z,5.90
2023-04-23T20:10:43.317Z,4.50
2023-04-23T20:14:07.386Z,4.70
2023-04-23T20:17:31.170Z,4.33
2023-04-23T20:20:56.311Z,5.80
2023-04-23T20:24:21.376Z,5.13
2023-04-23T20:27:45.707Z,5.87
2023-04-23T20:31:09.488Z,4.50
2023-04-23T20:34:33.054Z,4.07
2023-04-23T20:37:58.093Z,5.07
2023-04-23T20:41:22.955Z,3.83
2023-04-23T20:44:47.005Z,4.30
2023-04-23T20:48:10.916Z,3.90
2023-04-23T20:51:34.765Z,3.70
2023-04-23T20:54:59.745Z,4.67
2023-04-23T20:58:23.987Z,3.87
2023-04-23T21:01:49.299Z,5.00
2023-04-23T21:05:14.713Z,5.10
2023-04-23T21:08:41.090Z,4.40
2023-04-23T21:12:06.532Z,4.37
2023-04-23T21:15:33.962Z,6.60
2023-04-23T21:18:57.582Z,5.50
2023-04-23T21:22:21.252Z,4.57
2023-04-23T21:25:45.514Z,5.57
2023-04-23T21:29:10.536Z,4.87
2023-04-23T21:32:34.263Z,4.87
2023-04-23T21:35:57.882Z,5.20
2023-04-23T21:39:21.568Z,4.57
2023-04-23T21:42:46.335Z,4.13
2023-04-23T21:46:11.372Z,5.70
2023-04-23T21:49:34.967Z,4.43
2023-04-23T21:52:59.408Z,4.70
2023-04-23T21:56:23.233Z,4.97
2023-04-23T21:59:46.853Z,4.40
2023-04-23T22:03:14.530Z,5.03
2023-04-23T22:06:40.746Z,6.47
2023-04-23T22:10:05.468Z,9.20
2023-04-23T22:13:29.163Z,4.40
2023-04-23T22:16:54.975Z,7.80
2023-04-23T22:20:23.700Z,4.10
2023-04-23T22:23:47.364Z,5.03
2023-04-23T22:27:11.091Z,4.77
2023-04-23T22:30:34.765Z,6.87
2023-04-23T22:33:58.334Z,4.90
2023-04-23T22:37:26.224Z,5.10
2023-04-23T22:40:50.243Z,4.23
2023-04-23T22:44:14.120Z,4.10
2023-04-23T22:47:38.302Z,4.23
2023-04-23T22:51:04.590Z,5.50
2023-04-23T22:54:30.620Z,3.70
2023-04-23T22:57:55.439Z,4.57
2023-04-23T23:01:20.407Z,5.70
2023-04-23T23:04:45.869Z,4.00
2023-04-23T23:08:10.192Z,4.07
2023-04-23T23:11:35.474Z,4.10
2023-04-23T23:14:59.229Z,4.80
2023-04-23T23:18:23.106Z,3.97
2023-04-23T23:21:47.386Z,3.80
2023-04-23T23:25:13.936Z,5.20
2023-04-23T23:28:41.705Z,4.03
2023-04-23T23:32:08.854Z,4.20
2023-04-23T23:35:32.646Z,3.73
2023-04-23T23:38:58.328Z,4.23
2023-04-23T23:42:23.020Z,4.10
2023-04-23T23:45:49.176Z,4.00
2023-04-23T23:49:14.293Z,4.40
2023-04-23T23:52:38.177Z,5.53
2023-04-23T23:56:02.298Z,5.30
2023-04-23T23:59:28.639Z,4.87
